Time;durP1;ratioP1;P1;durP2;ratioP2;P2;SDS_P1;SDS_P2;PMS_P1;PMS_P2;Temp;Humidity;BMP_temperature;BMP_pressure;BME280_temperature;BME280_humidity;BME280_pressure;Samples;Min_cycle;Max_cycle;Signal;HPM_P1;HPM_P2
2022/05/28 00:00:53;;;;;;;5.83;3.93;;;15.30;99.90;;;;;;5113641;28;20446;-57
2022/05/28 00:03:20;;;;;;;5.77;3.60;;;15.10;99.90;;;;;;5113527;28;20447;-57
2022/05/28 00:05:47;;;;;;;4.70;3.73;;;15.00;99.90;;;;;;5113604;28;20549;-57
2022/05/28 00:08:15;;;;;;;10.67;4.30;;;14.80;99.90;;;;;;5113464;28;20449;-57
2022/05/28 00:10:42;;;;;;;5.40;4.47;;;14.80;99.90;;;;;;5113243;28;21004;-57
2022/05/28 00:13:12;;;;;;;9.53;4.60;;;14.60;99.90;;;;;;5115454;28;20959;-57
2022/05/28 00:15:41;;;;;;;3.83;3.53;;;14.60;99.90;;;;;;5117443;28;20433;-57
2022/05/28 00:18:09;;;;;;;6.30;4.07;;;14.40;99.90;;;;;;5117185;28;20838;-57
2022/05/28 00:20:36;;;;;;;9.70;4.33;;;14.40;99.90;;;;;;5117333;28;20438;-57
2022/05/28 00:23:04;;;;;;;5.57;4.73;;;14.30;99.90;;;;;;5116869;28;20446;-57
2022/05/28 00:25:31;;;;;;;4.00;3.57;;;14.30;99.90;;;;;;5117078;28;20537;-57
2022/05/28 00:27:58;;;;;;;7.30;5.13;;;14.20;99.90;;;;;;5116619;28;20825;-56
2022/05/28 00:30:27;;;;;;;10.70;5.03;;;14.10;99.90;;;;;;5116956;28;20573;-56
2022/05/28 00:32:54;;;;;;;11.90;4.27;;;14.00;99.90;;;;;;5116993;28;20456;-56
2022/05/28 00:35:22;;;;;;;16.77;5.10;;;14.00;99.90;;;;;;5116712;28;20967;-56
2022/05/28 00:37:49;;;;;;;7.07;5.07;;;14.00;99.90;;;;;;5116580;28;20442;-56
2022/05/28 00:40:20;;;;;;;5.63;4.50;;;14.00;99.90;;;;;;5116666;28;20450;-56
2022/05/28 00:42:47;;;;;;;5.83;4.70;;;14.10;99.90;;;;;;5116745;28;20423;-56
2022/05/28 00:45:14;;;;;;;7.47;5.00;;;14.00;99.90;;;;;;5115244;28;20508;-56
2022/05/28 00:47:48;;;;;;;7.07;4.93;;;13.90;99.90;;;;;;5116387;28;20925;-56
2022/05/28 00:50:16;;;;;;;5.53;4.97;;;13.80;99.90;;;;;;5116671;28;20464;-57
2022/05/28 00:52:44;;;;;;;8.60;5.00;;;13.60;99.90;;;;;;5116333;28;21000;-56
2022/05/28 00:55:12;;;;;;;7.03;5.23;;;13.60;99.90;;;;;;5114067;28;20451;-56
2022/05/28 00:57:40;;;;;;;7.03;5.33;;;13.60;99.90;;;;;;5096134;28;20482;-56
2022/05/28 01:00:09;;;;;;;9.77;6.17;;;13.70;99.90;;;;;;5096118;28;20544;-56
2022/05/28 01:02:45;;;;;;;9.97;5.00;;;13.70;99.90;;;;;;5096035;28;20523;-57
2022/05/28 01:05:20;;;;;;;10.03;5.53;;;13.70;99.90;;;;;;5096101;28;20790;-56
2022/05/28 01:08:01;;;;;;;13.50;5.60;;;13.80;99.90;;;;;;5095992;28;20485;-56
2022/05/28 01:10:38;;;;;;;5.67;4.70;;;13.80;99.90;;;;;;5095863;28;20525;-57
2022/05/28 01:13:08;;;;;;;8.30;5.20;;;13.80;99.90;;;;;;5095835;28;20456;-57
2022/05/28 01:15:40;;;;;;;11.90;4.80;;;13.70;99.90;;;;;;5095813;28;20439;-57
2022/05/28 01:18:15;;;;;;;10.37;5.40;;;13.70;99.90;;;;;;5095487;28;20474;-57
2022/05/28 01:20:47;;;;;;;9.27;4.87;;;13.60;99.90;;;;;;5095473;28;20423;-57
2022/05/28 01:23:27;;;;;;;5.87;4.47;;;13.50;99.90;;;;;;5095149;28;20895;-57
2022/05/28 01:26:03;;;;;;;6.00;4.27;;;13.60;99.90;;;;;;5095266;28;20435;-56
2022/05/28 01:28:36;;;;;;;11.43;5.43;;;13.50;99.90;;;;;;5095311;28;20554;-56
2022/05/28 01:31:05;;;;;;;7.00;4.93;;;13.50;99.90;;;;;;5095565;28;20474;-56
2022/05/28 01:33:34;;;;;;;5.57;4.73;;;13.40;99.90;;;;;;5095428;28;20874;-57
2022/05/28 01:36:02;;;;;;;5.30;4.10;;;13.50;99.90;;;;;;5095191;28;20447;-56
2022/05/28 01:38:32;;;;;;;7.43;4.80;;;13.40;99.90;;;;;;5094981;28;20467;-57
2022/05/28 01:41:00;;;;;;;6.50;4.70;;;13.40;99.90;;;;;;5095099;28;20961;-56
2022/05/28 01:43:28;;;;;;;14.87;4.87;;;13.40;99.90;;;;;;5095010;28;20459;-56
2022/05/28 01:45:57;;;;;;;5.13;4.17;;;13.20;99.90;;;;;;5094829;28;20570;-56
2022/05/28 01:48:26;;;;;;;8.03;4.13;;;13.20;99.90;;;;;;5094766;28;20477;-56
2022/05/28 01:50:55;;;;;;;7.23;4.23;;;13.20;99.90;;;;;;5094777;28;20481;-57
2022/05/28 01:56:11;;;;;;;5.90;3.70;;;13.20;99.90;;;;;;5094783;28;20431;-57
2022/05/28 01:58:38;;;;;;;6.57;3.60;;;13.10;99.90;;;;;;5094942;28;20550;-57
2022/05/28 02:01:09;;;;;;;8.13;4.10;;;13.10;99.90;;;;;;5094908;28;20439;-56
2022/05/28 02:03:41;;;;;;;7.00;3.90;;;13.10;99.90;;;;;;5094939;28;20415;-56
2022/05/28 02:06:08;;;;;;;6.73;3.87;;;13.00;99.90;;;;;;5094872;28;20460;-56
2022/05/28 02:08:39;;;;;;;12.23;4.67;;;13.00;99.90;;;;;;5094450;28;20464;-56
2022/05/28 02:11:11;;;;;;;5.40;3.60;;;13.00;99.90;;;;;;5094405;28;21046;-57
2022/05/28 02:13:53;;;;;;;5.47;3.13;;;13.10;99.90;;;;;;5094762;28;20485;-59
2022/05/28 02:16:29;;;;;;;6.30;4.30;;;13.10;99.90;;;;;;5094455;28;20431;-57
2022/05/28 02:18:59;;;;;;;4.90;3.00;;;13.20;99.90;;;;;;5094257;28;20974;-56
2022/05/28 02:21:34;;;;;;;10.33;3.37;;;13.10;99.90;;;;;;5094283;28;20454;-57
2022/05/28 02:24:06;;;;;;;6.13;4.23;;;13.00;99.90;;;;;;5094301;28;20407;-57
2022/05/28 02:26:39;;;;;;;11.87;5.07;;;12.90;99.90;;;;;;5094404;28;20440;-56
2022/05/28 02:29:07;;;;;;;8.20;3.67;;;12.70;99.90;;;;;;5093940;28;20459;-57
2022/05/28 02:31:36;;;;;;;5.23;3.40;;;12.70;99.90;;;;;;5094267;28;20479;-56
2022/05/28 02:34:04;;;;;;;14.60;4.50;;;12.70;99.90;;;;;;5093970;28;20466;-56
2022/05/28 02:36:31;;;;;;;10.03;4.00;;;12.70;99.90;;;;;;5094232;28;20529;-56
2022/05/28 02:38:59;;;;;;;6.30;3.60;;;12.70;99.90;;;;;;5093871;28;21050;-57
2022/05/28 02:41:26;;;;;;;5.37;3.50;;;12.50;99.90;;;;;;5093963;28;20443;-56
2022/05/28 02:43:54;;;;;;;3.57;3.27;;;12.50;99.90;;;;;;5093851;28;20850;-56
2022/05/28 02:46:21;;;;;;;8.00;4.00;;;12.40;99.90;;;;;;5093738;28;20487;-57
2022/05/28 02:48:50;;;;;;;9.03;4.27;;;12.40;99.90;;;;;;5093933;28;20464;-56
2022/05/28 02:51:20;;;;;;;7.50;4.10;;;12.30;99.90;;;;;;5094036;28;20481;-56
2022/05/28 02:53:48;;;;;;;7.13;3.60;;;12.30;99.90;;;;;;5093695;28;20447;-57
2022/05/28 02:56:15;;;;;;;6.87;3.63;;;12.20;99.90;;;;;;5093909;28;20443;-56
2022/05/28 02:58:42;;;;;;;5.20;3.40;;;12.20;99.90;;;;;;5093340;28;20477;-57
2022/05/28 03:01:18;;;;;;;10.30;3.57;;;12.10;99.90;;;;;;5093877;28;20453;-57
2022/05/28 03:03:46;;;;;;;5.97;3.47;;;12.10;99.90;;;;;;5093427;28;20451;-56
2022/05/28 03:06:15;;;;;;;11.17;3.50;;;12.00;99.90;;;;;;5093856;28;20447;-56
2022/05/28 03:08:42;;;;;;;6.10;4.00;;;12.00;99.90;;;;;;5093744;28;20826;-56
2022/05/28 03:11:09;;;;;;;7.67;3.30;;;11.90;99.90;;;;;;5093772;28;20447;-57
2022/05/28 03:13:37;;;;;;;7.53;3.20;;;11.80;99.90;;;;;;5093265;28;20960;-57
2022/05/28 03:16:05;;;;;;;8.03;3.03;;;11.80;99.90;;;;;;5093779;28;20454;-56
2022/05/28 03:18:33;;;;;;;7.03;3.67;;;11.70;99.90;;;;;;5093588;28;20471;-56
2022/05/28 03:21:00;;;;;;;6.03;3.20;;;11.80;99.90;;;;;;5093668;28;20802;-56
2022/05/28 03:23:28;;;;;;;6.10;3.20;;;11.80;99.90;;;;;;5093370;28;20922;-56
2022/05/28 03:25:56;;;;;;;6.40;3.23;;;12.00;99.90;;;;;;5093192;28;20455;-56
2022/05/28 03:28:23;;;;;;;4.37;2.97;;;12.00;99.90;;;;;;5093421;28;20557;-56
2022/05/28 03:30:50;;;;;;;8.77;3.20;;;12.00;99.90;;;;;;5093661;28;20443;-57
2022/05/28 03:33:18;;;;;;;11.63;3.30;;;12.00;99.90;;;;;;5093546;28;20526;-57
2022/05/28 03:35:45;;;;;;;7.33;3.40;;;12.10;99.90;;;;;;5093812;28;20805;-57
2022/05/28 03:38:12;;;;;;;8.50;3.10;;;12.10;99.90;;;;;;5093153;28;20458;-57
2022/05/28 03:40:40;;;;;;;8.70;3.60;;;12.00;99.90;;;;;;5093235;28;20452;-56
2022/05/28 03:43:09;;;;;;;5.57;3.10;;;11.80;99.90;;;;;;5093139;28;20483;-57
2022/05/28 03:45:37;;;;;;;6.07;3.40;;;11.80;99.90;;;;;;5093479;28;20489;-56
2022/05/28 03:48:07;;;;;;;5.87;3.00;;;11.80;99.90;;;;;;5095561;28;20443;-56
2022/05/28 03:50:34;;;;;;;5.73;3.00;;;11.80;99.90;;;;;;5097987;28;20446;-57
2022/05/28 03:53:01;;;;;;;9.03;3.27;;;11.70;99.90;;;;;;5097058;28;20521;-56
2022/05/28 03:55:28;;;;;;;6.10;3.43;;;11.70;99.90;;;;;;5097096;28;20424;-56
2022/05/28 03:57:57;;;;;;;5.90;3.50;;;11.60;99.90;;;;;;5097338;28;20444;-56
2022/05/28 04:00:24;;;;;;;7.00;2.70;;;11.50;99.90;;;;;;5097174;28;20570;-56
2022/05/28 04:02:51;;;;;;;9.43;3.17;;;11.60;99.90;;;;;;5097147;28;20483;-56
2022/05/28 04:05:18;;;;;;;5.77;3.13;;;11.60;99.90;;;;;;5097606;28;20462;-57
2022/05/28 04:07:45;;;;;;;7.23;3.03;;;11.70;99.90;;;;;;5097348;28;20443;-56
2022/05/28 04:10:13;;;;;;;9.30;3.47;;;11.60;99.90;;;;;;5096768;28;20470;-56
2022/05/28 04:12:40;;;;;;;10.73;3.77;;;11.50;99.90;;;;;;5097073;28;20435;-56
2022/05/28 04:15:10;;;;;;;8.97;3.20;;;11.50;99.90;;;;;;5097179;28;20455;-56
2022/05/28 04:17:37;;;;;;;9.13;3.80;;;11.50;99.90;;;;;;5096977;28;20455;-56
2022/05/28 04:20:06;;;;;;;5.23;3.20;;;11.30;99.90;;;;;;5096797;28;20474;-56
2022/05/28 04:22:33;;;;;;;10.60;3.97;;;11.30;99.90;;;;;;5096886;28;20501;-56
2022/05/28 04:25:00;;;;;;;7.27;2.97;;;11.30;99.90;;;;;;5096674;28;20802;-57
2022/05/28 04:27:27;;;;;;;8.13;4.10;;;11.30;99.90;;;;;;5096841;28;20812;-56
2022/05/28 04:29:54;;;;;;;11.70;3.33;;;11.40;99.90;;;;;;5096562;28;20465;-56
2022/05/28 04:32:23;;;;;;;6.30;2.80;;;11.40;99.90;;;;;;5096452;28;20439;-56
2022/05/28 04:34:50;;;;;;;4.60;3.40;;;11.40;99.90;;;;;;5096634;28;20443;-56
2022/05/28 04:37:17;;;;;;;6.97;3.90;;;11.40;99.90;;;;;;5096622;28;20478;-57
2022/05/28 04:39:45;;;;;;;5.50;3.17;;;11.60;99.90;;;;;;5096415;28;20473;-56
2022/05/28 04:42:12;;;;;;;7.57;3.20;;;11.70;99.90;;;;;;5096519;28;20860;-56
2022/05/28 04:44:39;;;;;;;5.03;2.70;;;11.70;99.90;;;;;;5096288;28;20483;-57
2022/05/28 04:47:07;;;;;;;5.00;2.90;;;11.60;99.90;;;;;;5096197;28;20432;-57
2022/05/28 04:49:36;;;;;;;6.80;3.03;;;11.70;99.90;;;;;;5095965;28;20958;-57
2022/05/28 04:52:03;;;;;;;4.17;2.90;;;11.70;99.90;;;;;;5096047;28;20447;-56
2022/05/28 04:54:30;;;;;;;2.53;2.30;;;11.70;99.90;;;;;;5096194;28;20463;-56
2022/05/28 04:56:57;;;;;;;7.83;3.60;;;11.80;99.90;;;;;;5096098;28;20538;-56
2022/05/28 04:59:24;;;;;;;9.20;2.67;;;11.80;99.90;;;;;;5094336;28;20463;-56
2022/05/28 05:01:51;;;;;;;5.80;2.57;;;11.80;99.90;;;;;;5096124;28;20509;-56
2022/05/28 05:04:19;;;;;;;9.70;3.10;;;11.90;99.90;;;;;;5095715;28;20534;-56
2022/05/28 05:06:47;;;;;;;4.20;3.07;;;12.00;99.90;;;;;;5095718;28;20448;-56
2022/05/28 05:09:14;;;;;;;3.87;3.40;;;12.20;99.90;;;;;;5095956;28;20463;-56
2022/05/28 05:11:42;;;;;;;8.90;3.20;;;12.20;99.90;;;;;;5095622;28;20450;-56
2022/05/28 05:14:09;;;;;;;14.57;4.03;;;12.30;99.90;;;;;;5095588;28;20467;-56
2022/05/28 05:16:36;;;;;;;7.30;3.30;;;12.20;99.90;;;;;;5095492;28;20948;-56
2022/05/28 05:19:04;;;;;;;7.17;3.00;;;12.30;99.90;;;;;;5095768;28;20472;-56
2022/05/28 05:21:31;;;;;;;9.20;3.30;;;12.30;99.90;;;;;;5095738;28;20447;-59
2022/05/28 05:24:00;;;;;;;6.60;3.40;;;12.20;99.90;;;;;;5095385;28;20479;-57
2022/05/28 05:26:27;;;;;;;8.80;3.37;;;12.20;99.90;;;;;;5095169;28;20535;-57
2022/05/28 05:28:54;;;;;;;6.87;3.33;;;12.30;99.90;;;;;;5095437;28;20467;-57
2022/05/28 05:31:21;;;;;;;6.67;3.47;;;12.40;99.90;;;;;;5095499;28;20447;-57
2022/05/28 05:33:49;;;;;;;5.73;2.90;;;12.50;99.90;;;;;;5095220;28;20926;-57
2022/05/28 05:36:16;;;;;;;9.43;3.50;;;12.50;99.90;;;;;;5095167;28;20439;-56
2022/05/28 05:38:44;;;;;;;7.90;3.30;;;12.60;99.90;;;;;;5095038;28;20558;-56
2022/05/28 05:41:12;;;;;;;10.37;3.50;;;12.60;99.90;;;;;;5095283;28;20480;-56
2022/05/28 05:43:40;;;;;;;7.10;3.27;;;12.70;99.90;;;;;;5095227;28;20591;-56
2022/05/28 05:46:08;;;;;;;7.70;3.20;;;12.80;99.90;;;;;;5094700;28;20486;-56
2022/05/28 05:48:35;;;;;;;8.20;3.27;;;12.80;99.90;;;;;;5095189;28;20467;-56
2022/05/28 05:51:06;;;;;;;8.53;4.10;;;12.70;99.90;;;;;;5095117;28;20443;-56
2022/05/28 05:53:34;;;;;;;7.93;3.07;;;12.70;99.90;;;;;;5094789;28;20781;-56
2022/05/28 05:56:01;;;;;;;9.47;3.10;;;12.80;99.90;;;;;;5094624;28;20434;-57
2022/05/28 05:58:30;;;;;;;4.67;3.40;;;12.70;99.90;;;;;;5094989;28;20469;-57
2022/05/28 06:00:57;;;;;;;11.80;3.53;;;12.60;99.90;;;;;;5094813;28;20527;-57
2022/05/28 06:03:24;;;;;;;8.70;3.70;;;12.50;99.90;;;;;;5094883;28;20561;-56
2022/05/28 06:05:57;;;;;;;10.53;2.90;;;12.60;99.90;;;;;;5094727;28;20428;-57
2022/05/28 06:08:24;;;;;;;10.07;2.90;;;12.60;99.90;;;;;;5094547;28;20451;-56
2022/05/28 06:10:51;;;;;;;5.63;2.70;;;12.60;99.90;;;;;;5093998;28;20454;-56
2022/05/28 06:13:19;;;;;;;5.80;2.20;;;12.60;99.90;;;;;;5094501;28;20451;-57
2022/05/28 06:15:47;;;;;;;6.33;2.50;;;12.70;99.90;;;;;;5094628;28;20483;-57
2022/05/28 06:18:16;;;;;;;6.60;2.77;;;12.70;99.90;;;;;;5094262;28;20443;-57
2022/05/28 06:20:43;;;;;;;7.40;2.67;;;12.90;99.90;;;;;;5094268;28;20443;-57
2022/05/28 06:23:10;;;;;;;4.97;2.47;;;12.90;99.90;;;;;;5094215;28;20562;-57
2022/05/28 06:25:39;;;;;;;2.93;2.10;;;13.00;99.90;;;;;;5094032;28;20440;-57
2022/05/28 06:28:06;;;;;;;3.97;1.87;;;13.10;99.90;;;;;;5094112;28;20458;-57
2022/05/28 06:30:34;;;;;;;6.20;2.33;;;13.20;99.90;;;;;;5094219;28;20451;-57
2022/05/28 06:33:02;;;;;;;7.47;2.20;;;13.30;99.90;;;;;;5094425;28;20447;-57
2022/05/28 06:35:31;;;;;;;2.73;2.33;;;13.50;99.90;;;;;;5094328;28;20452;-57
2022/05/28 06:37:58;;;;;;;6.17;2.70;;;13.50;99.90;;;;;;5093960;28;20459;-58
2022/05/28 06:40:26;;;;;;;7.27;3.50;;;13.40;99.90;;;;;;5094160;28;20498;-60
2022/05/28 06:42:56;;;;;;;6.17;3.27;;;13.30;99.90;;;;;;5094047;28;20479;-57
2022/05/28 06:45:24;;;;;;;4.30;2.40;;;13.20;99.90;;;;;;5093872;28;20549;-57
2022/05/28 06:47:51;;;;;;;3.40;2.37;;;13.30;99.90;;;;;;5094045;28;20475;-57
2022/05/28 06:53:09;;;;;;;2.20;2.00;;;13.40;99.90;;;;;;5092070;28;20407;-57
2022/05/28 06:55:36;;;;;;;5.97;2.30;;;13.30;99.90;;;;;;5091727;28;20560;-57
2022/05/28 06:58:03;;;;;;;5.63;2.90;;;13.30;99.90;;;;;;5092179;28;20865;-57
2022/05/28 07:00:31;;;;;;;6.40;2.87;;;13.30;99.90;;;;;;5093778;28;20454;-58
2022/05/28 07:02:58;;;;;;;3.60;2.50;;;13.40;99.90;;;;;;5093498;28;20993;-58
2022/05/28 07:05:28;;;;;;;5.73;2.40;;;13.60;99.40;;;;;;5093483;28;20450;-57
2022/05/28 07:07:55;;;;;;;6.50;1.90;;;13.70;99.30;;;;;;5093893;28;20482;-57
2022/05/28 07:10:22;;;;;;;3.00;1.80;;;13.80;99.20;;;;;;5093396;28;21021;-58
2022/05/28 07:12:50;;;;;;;4.33;2.40;;;14.30;97.60;;;;;;5093396;28;20473;-57
2022/05/28 07:15:17;;;;;;;10.43;2.97;;;14.90;97.60;;;;;;5093711;28;20439;-57
2022/05/28 07:17:44;;;;;;;7.33;2.50;;;14.90;97.10;;;;;;5093412;28;20451;-57
2022/05/28 07:20:13;;;;;;;4.80;2.33;;;15.60;96.80;;;;;;5093578;28;20546;-57
2022/05/28 07:22:41;;;;;;;3.97;1.93;;;16.10;95.80;;;;;;5092714;28;20483;-58
2022/05/28 07:25:10;;;;;;;2.63;1.70;;;16.40;95.00;;;;;;5092793;28;20444;-58
2022/05/28 07:27:38;;;;;;;3.30;2.17;;;16.90;94.60;;;;;;5092488;28;20452;-58
2022/05/28 07:30:06;;;;;;;7.43;2.00;;;17.20;93.20;;;;;;5090239;28;20550;-58
2022/05/28 07:32:33;;;;;;;4.83;1.90;;;17.90;93.60;;;;;;5090907;28;20453;-58
2022/05/28 07:35:01;;;;;;;9.57;2.07;;;17.80;91.60;;;;;;5090971;28;20827;-57
2022/05/28 07:37:30;;;;;;;5.33;2.33;;;18.00;90.90;;;;;;5091010;28;20451;-57
2022/05/28 07:39:59;;;;;;;6.83;2.33;;;18.80;92.40;;;;;;5090971;28;20463;-57
2022/05/28 07:42:28;;;;;;;2.47;1.80;;;18.40;91.30;;;;;;5091442;28;20439;-57
2022/05/28 07:44:55;;;;;;;4.83;2.30;;;18.40;90.30;;;;;;5092651;28;20490;-56
2022/05/28 07:47:22;;;;;;;4.47;2.10;;;18.20;90.20;;;;;;5093319;28;20459;-57
2022/05/28 07:49:49;;;;;;;4.53;1.80;;;17.90;88.40;;;;;;5093207;28;20476;-63
2022/05/28 07:52:18;;;;;;;3.27;1.83;;;19.20;96.70;;;;;;5093316;28;20802;-59
2022/05/28 07:54:46;;;;;;;4.80;2.13;;;20.00;91.40;;;;;;5093109;28;20444;-60
2022/05/28 07:57:14;;;;;;;2.83;2.03;;;21.10;90.70;;;;;;5093130;28;20500;-61
2022/05/28 07:59:42;;;;;;;3.80;1.90;;;21.50;89.40;;;;;;5093096;28;20517;-57
2022/05/28 08:02:09;;;;;;;3.00;1.80;;;22.40;87.70;;;;;;5093280;28;20530;-57
2022/05/28 08:04:37;;;;;;;4.10;2.13;;;22.20;83.60;;;;;;5092889;28;20866;-62
2022/05/28 08:07:05;;;;;;;3.17;1.90;;;22.50;76.60;;;;;;5092428;28;20490;-57
2022/05/28 08:09:32;;;;;;;8.30;2.10;;;22.50;73.50;;;;;;5093121;28;20481;-61
2022/05/28 08:11:59;;;;;;;4.07;1.73;;;22.80;71.80;;;;;;5093154;28;20453;-56
2022/05/28 08:14:27;;;;;;;4.87;1.80;;;22.60;65.40;;;;;;5093114;28;20870;-55
2022/05/28 08:16:54;;;;;;;4.47;2.07;;;22.50;66.60;;;;;;5092847;28;20957;-65
2022/05/28 08:19:22;;;;;;;3.70;1.67;;;21.00;68.70;;;;;;5092960;28;20481;-55
2022/05/28 08:24:33;;;;;;;6.13;3.10;;;20.80;69.40;;;;;;5092860;28;20819;-57
2022/05/28 08:27:01;;;;;;;6.80;3.10;;;21.60;74.80;;;;;;5092517;28;20443;-54
2022/05/28 08:29:30;;;;;;;11.87;5.87;;;22.20;69.60;;;;;;5092314;28;21004;-57
2022/05/28 08:31:57;;;;;;;11.37;3.20;;;21.90;71.60;;;;;;5092950;28;20444;-60
2022/05/28 08:34:24;;;;;;;4.40;2.70;;;22.70;69.80;;;;;;5095193;28;20443;-58
2022/05/28 08:36:51;;;;;;;6.23;2.10;;;22.40;69.40;;;;;;5096615;28;20446;-57
2022/05/28 08:39:18;;;;;;;3.73;2.10;;;21.90;69.00;;;;;;5096233;28;20558;-49
2022/05/28 08:41:52;;;;;;;3.50;1.70;;;20.60;69.20;;;;;;5096402;28;20533;-53
2022/05/28 08:44:22;;;;;;;4.73;1.70;;;20.00;70.50;;;;;;5095973;28;20475;-50
2022/05/28 08:46:54;;;;;;;2.60;1.90;;;19.80;70.70;;;;;;5096509;28;20496;-56
2022/05/28 08:49:26;;;;;;;3.37;1.73;;;20.00;72.50;;;;;;5095997;28;20456;-57
2022/05/28 08:51:59;;;;;;;8.03;2.90;;;19.80;70.90;;;;;;5096075;28;20477;-54
2022/05/28 08:54:29;;;;;;;3.63;1.87;;;20.40;70.50;;;;;;5096202;28;20999;-53
2022/05/28 08:57:00;;;;;;;5.50;2.30;;;20.70;70.30;;;;;;5095792;28;21011;-55
2022/05/28 08:59:32;;;;;;;5.73;1.97;;;21.80;69.20;;;;;;5095708;28;20463;-55
2022/05/28 09:02:02;;;;;;;3.17;2.03;;;21.30;68.50;;;;;;5096235;28;20442;-59
2022/05/28 09:04:33;;;;;;;5.83;2.53;;;22.20;69.00;;;;;;5095597;28;20541;-54
2022/05/28 09:07:05;;;;;;;3.47;1.70;;;22.70;67.80;;;;;;5096180;28;20443;-57
2022/05/28 09:09:40;;;;;;;2.93;2.10;;;22.30;66.00;;;;;;5095993;28;20555;-60
2022/05/28 09:12:12;;;;;;;2.60;1.60;;;22.40;66.30;;;;;;5095078;28;20438;-55
2022/05/28 09:14:40;;;;;;;5.50;1.90;;;22.80;69.80;;;;;;5095538;28;20458;-55
2022/05/28 09:17:27;;;;;;;6.73;2.00;;;23.30;65.90;;;;;;5095762;28;20531;-55
2022/05/28 09:20:00;;;;;;;7.63;3.00;;;23.30;65.40;;;;;;5095804;28;20467;-54
2022/05/28 09:22:28;;;;;;;6.83;2.27;;;22.90;64.80;;;;;;5095803;28;20511;-51
2022/05/28 09:24:55;;;;;;;2.90;2.17;;;21.10;63.20;;;;;;5095346;28;20692;-58
2022/05/28 09:27:31;;;;;;;7.70;2.17;;;20.50;67.10;;;;;;5095602;28;20479;-55
2022/05/28 09:30:15;;;;;;;3.57;1.70;;;22.10;69.20;;;;;;5095014;28;20467;-55
2022/05/28 09:33:11;;;;;;;4.57;1.90;;;22.10;65.90;;;;;;5093935;28;20444;-58
2022/05/28 09:35:53;;;;;;;4.50;1.97;;;21.30;66.40;;;;;;5094553;28;20432;-59
2022/05/28 09:38:26;;;;;;;3.47;1.83;;;20.70;67.90;;;;;;5095338;28;20808;-57
2022/05/28 09:40:57;;;;;;;3.60;1.80;;;21.40;67.20;;;;;;5095351;28;20467;-60
2022/05/28 09:43:45;;;;;;;9.00;2.40;;;20.40;65.10;;;;;;5095214;28;20494;-60
2022/05/28 09:46:21;;;;;;;5.00;2.00;;;20.90;67.70;;;;;;5094083;28;20481;-58
2022/05/28 09:49:01;;;;;;;4.03;1.80;;;20.80;67.40;;;;;;5094909;28;20882;-57
2022/05/28 09:51:31;;;;;;;2.17;1.40;;;20.20;66.30;;;;;;5094797;28;20535;-58
2022/05/28 09:54:17;;;;;;;3.80;2.50;;;20.70;68.80;;;;;;5094618;28;20825;-58
2022/05/28 09:56:46;;;;;;;3.67;2.10;;;22.00;66.50;;;;;;5109892;28;20517;-58
2022/05/28 09:59:25;;;;;;;10.70;3.23;;;21.30;63.50;;;;;;5115008;28;20983;-56
2022/05/28 10:01:55;;;;;;;5.20;2.30;;;21.10;63.00;;;;;;5115034;28;20408;-56
2022/05/28 10:04:29;;;;;;;3.70;1.57;;;21.30;66.60;;;;;;5114740;28;20987;-56
2022/05/28 10:06:57;;;;;;;6.03;1.70;;;21.40;65.80;;;;;;5115154;28;20866;-56
2022/05/28 10:09:26;;;;;;;2.90;1.70;;;20.50;63.50;;;;;;5114711;28;20557;-56
2022/05/28 10:11:55;;;;;;;3.77;2.00;;;20.00;62.60;;;;;;5114961;28;20525;-56
2022/05/28 10:14:24;;;;;;;5.30;2.03;;;20.90;64.80;;;;;;5114437;28;20454;-54
2022/05/28 10:16:56;;;;;;;3.00;1.80;;;21.60;65.50;;;;;;5114683;28;20557;-55
2022/05/28 10:19:30;;;;;;;4.80;2.00;;;20.80;63.20;;;;;;5114650;28;20466;-58
2022/05/28 10:22:01;;;;;;;2.80;1.90;;;21.30;65.60;;;;;;5114646;28;20433;-57
2022/05/28 10:24:36;;;;;;;3.70;2.20;;;21.60;65.10;;;;;;5114308;28;20473;-56
2022/05/28 10:27:03;;;;;;;3.83;1.90;;;20.70;63.80;;;;;;5114832;28;20457;-58
2022/05/28 10:29:38;;;;;;;5.63;1.90;;;20.50;64.80;;;;;;5114621;28;20474;-56
2022/05/28 10:32:17;;;;;;;2.90;1.60;;;20.80;65.80;;;;;;5114306;28;20438;-55
2022/05/28 10:34:45;;;;;;;5.03;2.20;;;20.80;64.90;;;;;;5113886;28;20454;-54
2022/05/28 10:37:16;;;;;;;3.60;1.87;;;20.40;64.60;;;;;;5114645;28;20447;-55
2022/05/28 10:39:44;;;;;;;7.30;2.67;;;20.10;65.60;;;;;;5114594;28;20481;-55
2022/05/28 10:42:13;;;;;;;7.67;2.00;;;20.30;64.90;;;;;;5114556;28;20493;-53
2022/05/28 10:44:42;;;;;;;8.50;1.80;;;20.30;66.00;;;;;;5114193;28;20810;-55
2022/05/28 10:47:25;;;;;;;5.53;2.37;;;20.30;65.70;;;;;;5114330;28;20597;-54
2022/05/28 10:50:02;;;;;;;3.60;1.70;;;20.20;67.50;;;;;;5114200;28;21021;-58
2022/05/28 10:52:40;;;;;;;4.23;2.90;;;20.00;66.10;;;;;;5114275;28;20632;-58
2022/05/28 10:55:10;;;;;;;5.50;2.23;;;18.90;66.90;;;;;;5113872;28;20427;-56
2022/05/28 10:57:58;;;;;;;2.60;2.30;;;20.00;68.20;;;;;;5114631;28;20461;-58
2022/05/28 11:00:32;;;;;;;5.07;1.80;;;20.30;65.60;;;;;;5114039;28;20465;-59
2022/05/28 11:03:35;;;;;;;4.80;2.93;;;20.60;63.20;;;;;;5114296;28;20433;-57
2022/05/28 11:06:26;;;;;;;3.93;2.10;;;20.60;62.00;;;;;;5072578;28;20944;-55
2022/05/28 11:09:04;;;;;;;3.37;2.20;;;21.30;62.40;;;;;;5114013;28;20501;-57
2022/05/28 11:11:45;;;;;;;6.60;3.30;;;21.90;61.40;;;;;;5113365;28;20893;-56
2022/05/28 11:14:42;;;;;;;9.50;2.40;;;22.10;59.80;;;;;;5113569;28;20959;-56
2022/05/28 11:17:27;;;;;;;2.30;2.00;;;21.90;59.80;;;;;;5113545;28;20455;-56
2022/05/28 11:20:12;;;;;;;3.50;2.10;;;21.60;60.80;;;;;;5113581;28;20965;-55
2022/05/28 11:23:13;;;;;;;2.93;2.57;;;21.50;61.00;;;;;;5113497;28;20415;-54
2022/05/28 11:25:58;;;;;;;3.60;1.80;;;21.90;61.30;;;;;;5111878;28;20531;-54
2022/05/28 11:28:39;;;;;;;4.80;2.20;;;22.00;59.40;;;;;;5111745;28;20466;-54
2022/05/28 11:31:14;;;;;;;4.33;3.20;;;21.40;58.90;;;;;;5111316;28;20507;-54
2022/05/28 11:33:47;;;;;;;4.83;2.10;;;21.40;58.00;;;;;;5111538;28;20522;-54
2022/05/28 11:36:23;;;;;;;4.77;1.97;;;21.80;58.80;;;;;;5111477;28;20431;-54
2022/05/28 11:38:56;;;;;;;3.30;1.80;;;22.30;59.00;;;;;;5111455;28;20552;-54
2022/05/28 11:41:29;;;;;;;3.20;1.90;;;20.90;57.50;;;;;;5113148;28;20430;-54
2022/05/28 11:44:06;;;;;;;2.60;1.90;;;21.30;59.00;;;;;;5112764;28;20562;-54
2022/05/28 11:46:40;;;;;;;9.93;2.20;;;21.60;59.10;;;;;;5112144;28;20485;-55
2022/05/28 11:52:05;;;;;;;7.00;1.83;;;21.70;59.00;;;;;;5113396;28;21400;-54
2022/05/28 11:54:39;;;;;;;10.53;2.07;;;22.10;56.30;;;;;;5113833;28;20422;-55
2022/05/28 11:57:21;;;;;;;3.23;1.87;;;20.90;55.80;;;;;;5113297;28;20953;-54
2022/05/28 11:59:49;;;;;;;6.50;1.70;;;20.70;57.90;;;;;;5113134;28;20466;-54
2022/05/28 12:02:24;;;;;;;3.30;1.63;;;20.70;57.20;;;;;;5113160;28;20515;-53
2022/05/28 12:04:51;;;;;;;4.80;1.90;;;20.80;57.10;;;;;;5110384;28;21035;-56
2022/05/28 12:07:33;;;;;;;5.50;2.23;;;19.80;56.80;;;;;;5099867;28;20884;-53
2022/05/28 12:10:05;;;;;;;3.87;2.20;;;19.50;60.10;;;;;;5096503;28;20463;-56
2022/05/28 12:12:36;;;;;;;1.87;1.67;;;20.00;60.30;;;;;;5096542;28;20451;-56
2022/05/28 12:15:20;;;;;;;4.30;1.97;;;21.00;59.20;;;;;;5095966;28;20967;-56
2022/05/28 12:17:58;;;;;;;3.40;1.80;;;21.40;59.30;;;;;;5096054;28;20451;-56
2022/05/28 12:20:30;;;;;;;3.10;1.67;;;21.70;58.70;;;;;;5103682;28;20505;-57
2022/05/28 12:23:01;;;;;;;4.43;2.60;;;21.90;58.30;;;;;;5116977;28;20422;-56
2022/05/28 12:25:38;;;;;;;4.40;1.80;;;22.20;57.70;;;;;;5108986;28;20478;-57
2022/05/28 12:28:11;;;;;;;3.90;1.63;;;21.30;57.60;;;;;;5095762;28;20546;-57
2022/05/28 12:30:53;;;;;;;4.83;2.10;;;20.40;58.10;;;;;;5094479;28;20463;-57
2022/05/28 12:33:27;;;;;;;7.73;2.50;;;20.60;59.90;;;;;;5103574;28;20519;-56
2022/05/28 12:36:05;;;;;;;4.40;2.00;;;21.00;60.20;;;;;;5104324;28;20455;-56
2022/05/28 12:38:56;;;;;;;4.80;2.80;;;21.80;59.20;;;;;;5096156;28;20961;-54
2022/05/28 12:41:29;;;;;;;4.43;1.60;;;21.90;59.40;;;;;;5101492;28;20542;-55
2022/05/28 12:44:17;;;;;;;4.03;1.70;;;21.70;58.90;;;;;;5104168;28;20458;-55
2022/05/28 12:46:49;;;;;;;3.60;2.00;;;21.50;59.10;;;;;;5098856;28;20587;-55
2022/05/28 12:49:29;;;;;;;3.57;1.80;;;21.60;58.70;;;;;;5108695;28;20985;-54
2022/05/28 12:52:20;;;;;;;1.97;1.70;;;21.10;59.40;;;;;;5102748;28;20481;-56
2022/05/28 12:54:49;;;;;;;3.80;1.60;;;21.20;59.30;;;;;;5085936;28;20456;-55
2022/05/28 12:57:31;;;;;;;4.53;1.87;;;21.70;59.20;;;;;;5114506;28;20944;-56
2022/05/28 13:00:08;;;;;;;2.17;1.90;;;22.30;58.30;;;;;;5113049;28;20565;-55
2022/05/28 13:02:40;;;;;;;2.70;1.80;;;22.60;58.60;;;;;;5113912;28;20458;-56
2022/05/28 13:05:12;;;;;;;3.20;2.00;;;22.70;58.00;;;;;;5113215;28;20472;-56
2022/05/28 13:07:46;;;;;;;3.60;1.77;;;22.70;58.30;;;;;;5116295;28;20458;-56
2022/05/28 13:10:17;;;;;;;5.20;1.90;;;22.60;58.40;;;;;;5113870;28;20544;-57
2022/05/28 13:12:52;;;;;;;2.57;1.93;;;21.90;57.10;;;;;;5116179;28;20442;-56
2022/05/28 13:15:55;;;;;;;2.67;1.87;;;22.30;58.30;;;;;;5115346;28;20475;-56